トビリシ の空港の天気 - METARとTAF

トビリシ国際空港 ( UGTB / TBS ) - ジョージア トビリシ
飛行場実況気象(Metar)
観測時間04/21 20:30 GET (04/21 16:30 UTC)
風向・風速東 2m/s
視程10km以上
天気現象
少しの雲 雲底高度 640m
全天を覆う雲 雲底高度 1580m
気温7℃
湿度81%
気圧1022hPa
METARUGTB 211630Z 09003KT 9999 FEW021 OVC052 07/04 Q1022 NOSIG
過去の天気等 Google飛行場航空写真 Wunderground天気予報

過去48時間のMETAR

飛行場予報(TAF)
発表時間: 4/21 15:00 GET (4/21 11:00 UTC)
予報対象時間: 21日16時 GET ~ 22日16時 GET
風向・風速不定 1m/s
視程10km以上
全天を覆う雲 雲底高度 760m
21日16時 GET ~ 21日21時 GET に一時的に
風向・風速南東 6m/s
21日21時 GET ~ 22日3時 GET に 確率 40% で一時的に
風向・風速南東 6m/s
天気現象しゅう雨
全天の8割程度の積乱雲 雲底高度 460m
全天を覆う雲 雲底高度 610m
22日3時 GET ~ 22日12時 GET に一時的に
視程3000m
天気現象雨 もや
全天の8割程度の雲 雲底高度 270m
全天を覆う雲 雲底高度 460m
TAF UGTB 211100Z 2112/2212 VRB02KT 9999 OVC025 TX08/2112Z TN04/2203Z
TEMPO 2112/2117 13012KT
PROB40 TEMPO 2117/2123 14012KT SHRA BKN015CB OVC020
TEMPO 2123/2208 3000 RA BR BKN009 OVC015